Ana Sayfa
METAR-TAF:

METAR-TAF

Havaalanları :

New River Valley Airport

Dublin, Virginia, Amerika Birleşik Devletleri

Enlem: 37-08N, Boylam: 080-41W, yükseklik: 642 m

Güncel hava durumu gözlemi

Rapor saat 12:15 UTC de 47 dakika önce yapıldı.
Rüzgar güneybatıdan 5 kt
Sıcaklık 15°C
Nem 94%
Basınç 1019 hPa
Görüş mesafesi: 16.1 km
Açık gökyüzü

METAR: KPSK 281215Z AUTO 23005KT 10SM CLR 15/14 A3010 RMK AO2 T01470137

Saat: 09:02 (13:02 UTC)


TAF: eksik

4.000'den fazla havaalanı için hava durumu gözlemleri ve tahminleri (METAR ve TAF raporları).

Kullanılabilir istasyonlar harita üzerinde sarı ve kırmızı noktalarla gösterilir.

İstasyonun adını görmek için fareyi noktanın üzerinde gezdirin.

Sonrasında hava gözlem ve tahminlerini görmek için tıklayın.

Haritayı değiştirmek için: yaklaştırmak için siyah artı işaretli yeşil düğmeye ve uzaklaştırmak için de eksi işaretli düğmeye hızla tıklayın; bitişik haritalar için yeşil okları kullanın.


METAR-TAF: